Time;durP1;ratioP1;P1;durP2;ratioP2;P2;SDS_P1;SDS_P2;PMS_P1;PMS_P2;Temp;Humidity;BMP_temperature;BMP_pressure;BME280_temperature;BME280_humidity;BME280_pressure;Samples;Min_cycle;Max_cycle;Signal;HPM_P1;HPM_P2
2022/07/19 00:00:31;;;;;;;14.82;7.32;;;;;;;;;;7669553;23;20075;-57
2022/07/19 00:03:39;;;;;;;12.13;6.80;;;;;;;;;;7672426;23;20127;-54
2022/07/19 00:06:39;;;;;;;13.07;7.07;;;;;;;;;;7671566;23;20441;-51
2022/07/19 00:09:40;;;;;;;11.63;7.00;;;;;;;;;;7672047;23;20056;-58
2022/07/19 00:12:41;;;;;;;13.27;7.22;;;;;;;;;;7669616;23;20340;-58
2022/07/19 00:15:41;;;;;;;12.30;6.78;;;;;;;;;;7672144;23;20445;-55
2022/07/19 00:18:42;;;;;;;10.13;6.35;;;;;;;;;;7671055;23;20021;-58
2022/07/19 00:21:43;;;;;;;12.43;6.65;;;;;;;;;;7671108;23;20101;-59
2022/07/19 00:24:43;;;;;;;14.30;6.90;;;;;;;;;;7672659;23;20377;-51
2022/07/19 00:27:44;;;;;;;13.27;7.15;;;;;;;;;;7668338;23;20103;-50
2022/07/19 00:30:45;;;;;;;14.20;7.25;;;;;;;;;;7668864;23;20756;-58
2022/07/19 00:33:45;;;;;;;12.52;7.07;;;;;;;;;;7670969;23;20051;-56
2022/07/19 00:36:46;;;;;;;12.70;7.03;;;;;;;;;;7670933;23;20550;-56
2022/07/19 00:39:47;;;;;;;14.07;7.40;;;;;;;;;;7670683;23;20049;-56
2022/07/19 00:42:47;;;;;;;16.23;7.83;;;;;;;;;;7673096;23;20040;-55
2022/07/19 00:45:48;;;;;;;14.63;7.63;;;;;;;;;;7670737;23;20132;-57
2022/07/19 00:48:50;;;;;;;12.80;7.50;;;;;;;;;;7672339;23;20023;-59
2022/07/19 00:51:52;;;;;;;13.82;7.78;;;;;;;;;;7669616;23;20017;-54
2022/07/19 00:54:54;;;;;;;12.98;7.57;;;;;;;;;;7672527;23;20095;-53
2022/07/19 00:57:56;;;;;;;12.82;7.40;;;;;;;;;;7671613;23;20352;-58
2022/07/19 01:00:57;;;;;;;16.15;7.80;;;;;;;;;;7671489;23;20132;-57
2022/07/19 01:03:58;;;;;;;14.10;7.90;;;;;;;;;;7671330;23;20017;-55
2022/07/19 01:07:00;;;;;;;13.82;8.18;;;;;;;;;;7671225;23;20108;-56
2022/07/19 01:10:01;;;;;;;;;;;;;;;;;;7670688;23;20558;-58
2022/07/19 01:13:02;;;;;;;14.60;7.60;;;;;;;;;;7669903;23;19920;-56
2022/07/19 01:16:02;;;;;;;13.93;7.90;;;;;;;;;;7669785;23;20055;-54
2022/07/19 01:19:05;;;;;;;15.20;8.73;;;;;;;;;;7671179;23;20044;-55
2022/07/19 01:22:06;;;;;;;13.60;7.97;;;;;;;;;;7676592;23;20143;-52
2022/07/19 01:25:07;;;;;;;14.77;8.32;;;;;;;;;;7673484;23;20088;-52
2022/07/19 01:28:08;;;;;;;15.37;8.40;;;;;;;;;;7674035;23;20017;-56
2022/07/19 01:31:10;;;;;;;16.20;9.35;;;;;;;;;;7673833;23;20432;-52
2022/07/19 01:34:10;;;;;;;14.90;8.38;;;;;;;;;;7668988;23;20495;-56
2022/07/19 01:37:11;;;;;;;15.90;8.57;;;;;;;;;;7669874;23;20013;-53
2022/07/19 01:40:13;;;;;;;18.30;8.50;;;;;;;;;;7669021;23;20099;-52
2022/07/19 01:43:14;;;;;;;15.88;8.95;;;;;;;;;;7665724;23;20407;-58
2022/07/19 01:46:15;;;;;;;19.67;8.30;;;;;;;;;;7669806;23;20031;-57
2022/07/19 01:49:15;;;;;;;15.17;8.57;;;;;;;;;;7670352;23;20119;-57
2022/07/19 01:52:16;;;;;;;12.98;8.43;;;;;;;;;;7666442;23;20021;-58
2022/07/19 01:55:19;;;;;;;21.10;8.50;;;;;;;;;;7666176;23;20055;-53
2022/07/19 01:58:19;;;;;;;15.65;8.23;;;;;;;;;;7667654;23;20024;-55
2022/07/19 02:01:20;;;;;;;15.50;7.93;;;;;;;;;;7667106;23;20017;-58
2022/07/19 02:04:20;;;;;;;16.83;9.07;;;;;;;;;;7667327;23;20140;-52
2022/07/19 02:07:21;;;;;;;12.63;8.47;;;;;;;;;;7668471;23;20064;-56
2022/07/19 02:10:21;;;;;;;15.15;9.00;;;;;;;;;;7666111;23;20017;-52
2022/07/19 02:13:22;;;;;;;15.10;9.48;;;;;;;;;;7664617;23;20013;-54
2022/07/19 02:16:22;;;;;;;13.20;9.07;;;;;;;;;;7671298;23;20100;-56
2022/07/19 02:19:23;;;;;;;17.73;10.00;;;;;;;;;;7669784;23;20083;-54
2022/07/19 02:22:23;;;;;;;19.08;10.20;;;;;;;;;;7666452;23;20088;-50
2022/07/19 02:25:24;;;;;;;16.58;10.43;;;;;;;;;;7666284;23;20017;-49
2022/07/19 02:28:25;;;;;;;21.45;12.35;;;;;;;;;;7668625;23;20108;-55
2022/07/19 02:31:25;;;;;;;36.30;22.80;;;;;;;;;;7669287;23;20017;-57
2022/07/19 02:34:26;;;;;;;18.70;10.95;;;;;;;;;;7666617;23;20139;-57
2022/07/19 02:37:27;;;;;;;25.67;14.80;;;;;;;;;;7668488;23;20029;-56
2022/07/19 02:40:27;;;;;;;19.55;12.55;;;;;;;;;;7669158;23;20032;-53
2022/07/19 02:43:28;;;;;;;19.38;11.88;;;;;;;;;;7667989;23;20029;-54
2022/07/19 02:46:29;;;;;;;23.00;15.75;;;;;;;;;;7669369;23;20049;-55
2022/07/19 02:49:29;;;;;;;24.50;14.65;;;;;;;;;;7667838;23;20136;-55
2022/07/19 02:52:30;;;;;;;20.30;11.57;;;;;;;;;;7668938;23;20013;-59
2022/07/19 02:55:31;;;;;;;17.55;10.52;;;;;;;;;;7668585;23;20610;-57
2022/07/19 02:58:32;;;;;;;16.13;9.43;;;;;;;;;;7669252;23;20090;-55
2022/07/19 03:01:33;;;;;;;19.05;10.10;;;;;;;;;;7664960;23;20338;-55
2022/07/19 03:04:33;;;;;;;22.83;13.73;;;;;;;;;;7665687;23;20072;-56
2022/07/19 03:07:35;;;;;;;31.00;19.45;;;;;;;;;;7666925;23;20457;-57
2022/07/19 03:10:36;;;;;;;21.17;14.95;;;;;;;;;;7666726;23;20028;-56
2022/07/19 03:13:37;;;;;;;28.20;18.00;;;;;;;;;;7681476;23;20067;-55
2022/07/19 03:16:37;;;;;;;20.58;13.35;;;;;;;;;;7668647;23;20107;-55
2022/07/19 03:19:38;;;;;;;17.48;10.48;;;;;;;;;;7669857;23;20314;-57
2022/07/19 03:22:38;;;;;;;21.30;14.13;;;;;;;;;;7667494;23;20156;-58
2022/07/19 03:25:39;;;;;;;16.10;10.23;;;;;;;;;;7668333;23;20431;-53
2022/07/19 03:28:40;;;;;;;16.13;9.63;;;;;;;;;;7668136;23;20066;-55
2022/07/19 03:31:40;;;;;;;20.13;10.75;;;;;;;;;;7667465;23;20333;-58
2022/07/19 03:34:41;;;;;;;15.05;9.38;;;;;;;;;;7670044;23;20092;-57
2022/07/19 03:37:41;;;;;;;20.23;9.95;;;;;;;;;;7667683;23;20017;-55
2022/07/19 03:40:43;;;;;;;15.43;8.85;;;;;;;;;;7668132;23;20140;-57
2022/07/19 03:43:44;;;;;;;18.60;12.60;;;;;;;;;;7667890;23;20531;-58
2022/07/19 03:46:44;;;;;;;16.00;9.20;;;;;;;;;;7666847;23;20029;-57
2022/07/19 03:49:45;;;;;;;28.10;12.52;;;;;;;;;;7668269;23;20071;-58
2022/07/19 03:52:46;;;;;;;15.05;9.30;;;;;;;;;;7667858;23;20051;-56
2022/07/19 03:55:47;;;;;;;20.92;11.20;;;;;;;;;;7667261;23;20102;-54
2022/07/19 03:58:48;;;;;;;22.83;11.30;;;;;;;;;;7664857;23;20064;-59
2022/07/19 04:01:51;;;;;;;16.60;11.00;;;;;;;;;;7668713;23;20406;-54
2022/07/19 04:04:51;;;;;;;18.38;9.90;;;;;;;;;;7683929;23;20017;-56
2022/07/19 04:07:52;;;;;;;17.75;10.10;;;;;;;;;;7666799;23;20025;-58
2022/07/19 04:10:52;;;;;;;17.10;9.07;;;;;;;;;;7669505;23;20021;-57
2022/07/19 04:13:53;;;;;;;15.60;10.15;;;;;;;;;;7663695;23;20036;-57
2022/07/19 04:16:53;;;;;;;17.73;10.02;;;;;;;;;;7665956;23;20395;-59
2022/07/19 04:19:54;;;;;;;14.98;10.10;;;;;;;;;;7664538;23;20203;-58
2022/07/19 04:22:56;;;;;;;19.40;9.73;;;;;;;;;;7664963;23;20017;-55
2022/07/19 04:25:57;;;;;;;20.67;11.00;;;;;;;;;;7667022;23;20041;-56
2022/07/19 04:28:58;;;;;;;19.67;10.35;;;;;;;;;;7666639;23;20084;-53
2022/07/19 04:31:58;;;;;;;18.00;10.57;;;;;;;;;;7665684;23;20028;-54
2022/07/19 04:35:00;;;;;;;17.52;10.75;;;;;;;;;;7664500;23;20412;-56
2022/07/19 04:38:00;;;;;;;21.60;11.02;;;;;;;;;;7664380;23;20048;-57
2022/07/19 04:41:01;;;;;;;19.60;10.90;;;;;;;;;;7667529;23;20096;-55
2022/07/19 04:44:01;;;;;;;21.75;10.50;;;;;;;;;;7669756;23;20043;-57
2022/07/19 04:47:02;;;;;;;18.15;10.60;;;;;;;;;;7666121;23;20103;-55
2022/07/19 04:50:03;;;;;;;21.23;11.17;;;;;;;;;;7668590;23;20408;-56
2022/07/19 04:53:04;;;;;;;22.83;10.82;;;;;;;;;;7665637;23;20048;-57
2022/07/19 04:56:06;;;;;;;30.30;11.60;;;;;;;;;;7665238;23;20429;-53
2022/07/19 04:59:07;;;;;;;24.02;11.02;;;;;;;;;;7669196;23;20100;-57
2022/07/19 05:02:08;;;;;;;23.25;11.00;;;;;;;;;;7677114;23;20020;-57
2022/07/19 05:05:10;;;;;;;27.40;11.32;;;;;;;;;;7671255;23;20033;-53
2022/07/19 05:08:10;;;;;;;20.23;11.30;;;;;;;;;;7669463;23;20079;-55
2022/07/19 05:11:11;;;;;;;21.50;10.83;;;;;;;;;;7671329;23;20116;-55
2022/07/19 05:14:11;;;;;;;20.27;10.75;;;;;;;;;;7669708;23;20025;-56
2022/07/19 05:17:12;;;;;;;19.07;11.23;;;;;;;;;;7671292;23;20040;-55
2022/07/19 05:20:15;;;;;;;23.05;11.18;;;;;;;;;;7671622;23;20072;-51
2022/07/19 05:23:15;;;;;;;22.25;11.30;;;;;;;;;;7672101;23;20017;-55
2022/07/19 05:26:16;;;;;;;19.60;10.77;;;;;;;;;;7670648;23;20143;-56
2022/07/19 05:29:16;;;;;;;23.60;10.90;;;;;;;;;;7670294;23;20156;-58
2022/07/19 05:32:18;;;;;;;18.20;10.88;;;;;;;;;;7668045;23;20103;-55
2022/07/19 05:35:18;;;;;;;20.93;11.30;;;;;;;;;;7670572;23;20071;-55
2022/07/19 05:38:19;;;;;;;20.57;11.30;;;;;;;;;;7672544;23;20488;-52
2022/07/19 05:41:21;;;;;;;20.93;10.87;;;;;;;;;;7670403;23;20136;-52
2022/07/19 05:44:22;;;;;;;15.07;9.57;;;;;;;;;;7671483;23;20108;-50
2022/07/19 05:47:23;;;;;;;20.93;10.03;;;;;;;;;;7670272;23;20027;-55
2022/07/19 05:50:23;;;;;;;17.57;10.07;;;;;;;;;;7670503;23;20403;-58
2022/07/19 05:53:24;;;;;;;16.77;9.67;;;;;;;;;;7669453;23;20035;-57
2022/07/19 05:56:25;;;;;;;16.05;10.40;;;;;;;;;;7672476;23;20536;-58
2022/07/19 05:59:26;;;;;;;18.60;10.43;;;;;;;;;;7671912;23;20020;-56
2022/07/19 06:02:26;;;;;;;13.37;7.90;;;;;;;;;;7671783;23;20021;-59
2022/07/19 06:05:27;;;;;;;13.53;7.93;;;;;;;;;;7668173;23;20025;-57
2022/07/19 06:08:27;;;;;;;15.00;8.33;;;;;;;;;;7668384;23;20017;-54
2022/07/19 06:11:28;;;;;;;14.93;8.10;;;;;;;;;;7666894;23;20025;-60
2022/07/19 06:14:29;;;;;;;15.93;8.13;;;;;;;;;;7671247;23;20045;-58
2022/07/19 06:17:29;;;;;;;14.77;7.67;;;;;;;;;;7672516;23;20461;-52
2022/07/19 06:20:30;;;;;;;18.00;7.50;;;;;;;;;;7669361;23;20039;-53
2022/07/19 06:23:31;;;;;;;12.93;7.10;;;;;;;;;;7666345;23;20020;-57
2022/07/19 06:26:31;;;;;;;15.00;7.30;;;;;;;;;;7668313;23;20104;-55
2022/07/19 06:29:32;;;;;;;13.97;7.30;;;;;;;;;;7669442;23;20013;-58
2022/07/19 06:32:32;;;;;;;14.43;7.33;;;;;;;;;;7669085;23;20017;-51
2022/07/19 06:35:33;;;;;;;12.13;7.13;;;;;;;;;;7668874;23;20048;-52
2022/07/19 06:38:34;;;;;;;11.73;6.57;;;;;;;;;;7669405;23;20397;-58
2022/07/19 06:41:34;;;;;;;15.03;6.57;;;;;;;;;;7667152;23;20123;-59
2022/07/19 06:44:35;;;;;;;15.23;6.63;;;;;;;;;;7679211;23;20502;-55
2022/07/19 06:47:37;;;;;;;14.30;6.80;;;;;;;;;;7672562;23;20075;-59
2022/07/19 06:50:37;;;;;;;;;;;;;;;;;;7672296;23;20099;-49
2022/07/19 06:53:38;;;;;;;13.50;7.00;;;;;;;;;;7671520;23;19970;-58
2022/07/19 06:56:38;;;;;;;13.17;7.27;;;;;;;;;;7669962;23;20043;-59
2022/07/19 06:59:39;;;;;;;13.43;6.70;;;;;;;;;;7669979;23;20096;-57
2022/07/19 07:02:40;;;;;;;19.53;7.60;;;;;;;;;;7669191;23;20448;-49
2022/07/19 07:05:41;;;;;;;14.70;6.40;;;;;;;;;;7669731;23;20021;-59
2022/07/19 07:08:41;;;;;;;14.83;7.00;;;;;;;;;;7671491;23;20096;-58
2022/07/19 07:11:42;;;;;;;13.93;8.10;;;;;;;;;;7670504;23;20397;-56
2022/07/19 07:14:42;;;;;;;12.87;7.03;;;;;;;;;;7671746;23;20044;-59
2022/07/19 07:17:43;;;;;;;14.13;5.83;;;;;;;;;;7671420;23;20025;-52
2022/07/19 07:20:44;;;;;;;12.93;6.53;;;;;;;;;;7672298;23;20013;-58
2022/07/19 07:23:45;;;;;;;13.97;6.50;;;;;;;;;;7670560;23;20041;-57
2022/07/19 07:26:45;;;;;;;13.63;5.83;;;;;;;;;;7669758;23;20017;-59
2022/07/19 07:29:46;;;;;;;11.47;5.47;;;;;;;;;;7670579;23;20497;-55
2022/07/19 07:32:46;;;;;;;10.50;5.17;;;;;;;;;;7671180;23;20017;-59
2022/07/19 07:35:47;;;;;;;14.03;6.00;;;;;;;;;;7668336;23;20408;-52
2022/07/19 07:38:47;;;;;;;8.67;5.13;;;;;;;;;;7667118;23;20381;-58
2022/07/19 07:41:48;;;;;;;9.90;5.00;;;;;;;;;;7665241;23;20101;-54
2022/07/19 07:44:49;;;;;;;10.63;4.80;;;;;;;;;;7666537;23;20096;-59
2022/07/19 07:47:49;;;;;;;9.13;4.67;;;;;;;;;;7667374;23;20074;-55
2022/07/19 07:50:50;;;;;;;10.10;4.70;;;;;;;;;;7667026;23;20106;-53
2022/07/19 07:53:51;;;;;;;12.00;4.67;;;;;;;;;;7662426;23;20017;-52
2022/07/19 07:56:51;;;;;;;9.70;4.55;;;;;;;;;;7665607;23;20029;-50
2022/07/19 07:59:52;;;;;;;13.03;4.17;;;;;;;;;;7665836;23;20394;-58
2022/07/19 08:02:53;;;;;;;9.73;3.93;;;;;;;;;;7664529;23;20100;-55
2022/07/19 08:05:53;;;;;;;7.33;4.20;;;;;;;;;;7666422;23;20482;-59
2022/07/19 08:08:54;;;;;;;8.27;4.57;;;;;;;;;;7666841;23;20445;-58
2022/07/19 08:11:54;;;;;;;8.90;4.73;;;;;;;;;;7667236;23;20025;-58
2022/07/19 08:14:55;;;;;;;8.53;4.37;;;;;;;;;;7665419;23;20040;-48
2022/07/19 08:17:55;;;;;;;8.80;4.43;;;;;;;;;;7670059;23;20031;-55
2022/07/19 08:20:56;;;;;;;8.30;4.13;;;;;;;;;;7668930;23;20095;-59
2022/07/19 08:23:56;;;;;;;8.93;4.57;;;;;;;;;;7664748;23;20092;-56
2022/07/19 08:26:57;;;;;;;9.30;4.67;;;;;;;;;;7665786;23;20056;-54
2022/07/19 08:29:58;;;;;;;10.83;4.47;;;;;;;;;;7664346;23;20059;-59
2022/07/19 08:33:00;;;;;;;8.07;4.40;;;;;;;;;;7665776;23;20067;-51
2022/07/19 08:36:01;;;;;;;7.35;4.10;;;;;;;;;;7670982;23;20099;-50
2022/07/19 08:39:02;;;;;;;8.87;4.00;;;;;;;;;;7671277;23;20573;-58
2022/07/19 08:42:03;;;;;;;8.77;4.88;;;;;;;;;;7670149;23;20128;-58
2022/07/19 08:45:09;;;;;;;7.97;4.20;;;;;;;;;;7667284;23;20052;-58
2022/07/19 08:48:09;;;;;;;7.53;4.50;;;;;;;;;;7664687;23;20025;-55
2022/07/19 08:51:11;;;;;;;10.17;4.80;;;;;;;;;;7665903;23;20017;-58
2022/07/19 08:54:12;;;;;;;9.48;4.50;;;;;;;;;;7659961;23;20025;-55
2022/07/19 09:00:33;;;;;;;8.60;4.03;;;;;;;;;;7667008;23;20025;-57
2022/07/19 09:03:34;;;;;;;9.90;5.30;;;;;;;;;;7666478;23;20025;-59
2022/07/19 09:06:40;;;;;;;11.03;4.37;;;;;;;;;;7668125;23;20075;-57
2022/07/19 09:09:40;;;;;;;12.45;4.57;;;;;;;;;;7669618;23;20390;-54
2022/07/19 09:13:02;;;;;;;9.07;4.80;;;;;;;;;;7670090;23;20020;-56
2022/07/19 09:16:03;;;;;;;10.90;4.75;;;;;;;;;;7670451;23;20040;-54
2022/07/19 09:19:04;;;;;;;8.73;4.38;;;;;;;;;;7671646;23;20099;-56
2022/07/19 09:22:14;;;;;;;12.98;5.00;;;;;;;;;;7670943;23;20023;-56
2022/07/19 09:25:32;;;;;;;8.60;4.45;;;;;;;;;;7669010;23;20103;-59
2022/07/19 09:28:34;;;;;;;11.02;4.28;;;;;;;;;;7670084;23;20017;-59
2022/07/19 09:31:35;;;;;;;8.65;4.07;;;;;;;;;;7671221;23;20020;-56
2022/07/19 09:34:41;;;;;;;10.30;4.73;;;;;;;;;;7679205;23;20116;-53
2022/07/19 09:37:42;;;;;;;10.60;4.22;;;;;;;;;;7665984;23;20028;-52
2022/07/19 09:40:42;;;;;;;9.97;4.33;;;;;;;;;;7666013;23;20024;-58
2022/07/19 09:44:00;;;;;;;8.53;4.23;;;;;;;;;;7665416;23;20037;-58
2022/07/19 09:47:01;;;;;;;7.28;4.15;;;;;;;;;;7667161;23;20459;-55
2022/07/19 09:50:05;;;;;;;10.77;4.63;;;;;;;;;;7679328;23;20021;-50
2022/07/19 09:53:06;;;;;;;8.77;4.47;;;;;;;;;;7668187;23;20500;-50
2022/07/19 09:56:07;;;;;;;7.90;3.80;;;;;;;;;;7667741;23;20017;-49
2022/07/19 09:59:08;;;;;;;8.50;4.20;;;;;;;;;;7665386;23;20017;-58
2022/07/19 10:02:09;;;;;;;8.77;4.25;;;;;;;;;;7665794;23;20322;-55
2022/07/19 10:05:11;;;;;;;6.80;3.78;;;;;;;;;;7665725;23;20021;-59
2022/07/19 10:08:12;;;;;;;7.60;4.00;;;;;;;;;;7666472;23;20764;-58
2022/07/19 10:11:13;;;;;;;9.27;4.00;;;;;;;;;;7669169;23;20023;-58
2022/07/19 10:14:14;;;;;;;;;;;;;;;;;;7672071;23;20099;-55
2022/07/19 10:17:26;;;;;;;8.13;3.73;;;;;;;;;;7672332;23;20394;-59
2022/07/19 10:20:28;;;;;;;5.45;3.50;;;;;;;;;;7672097;23;20045;-57
2022/07/19 10:23:31;;;;;;;8.52;3.50;;;;;;;;;;7672326;23;20349;-54
2022/07/19 10:26:37;;;;;;;5.25;3.42;;;;;;;;;;7672270;23;20079;-58
2022/07/19 10:29:37;;;;;;;7.03;3.35;;;;;;;;;;7682989;23;20095;-58
2022/07/19 10:32:43;;;;;;;5.93;3.40;;;;;;;;;;7671238;23;20054;-56
2022/07/19 10:35:44;;;;;;;9.43;3.72;;;;;;;;;;7669505;23;20349;-58
2022/07/19 10:39:20;;;;;;;8.10;3.50;;;;;;;;;;7666393;23;20075;-59
2022/07/19 10:42:23;;;;;;;8.43;3.42;;;;;;;;;;7636702;23;20054;-58
2022/07/19 10:45:23;;;;;;;7.00;3.70;;;;;;;;;;7666155;23;20468;-54
2022/07/19 10:48:50;;;;;;;10.00;3.67;;;;;;;;;;7666373;23;20024;-58
2022/07/19 10:51:50;;;;;;;8.05;3.92;;;;;;;;;;7665971;23;20031;-55
2022/07/19 10:55:19;;;;;;;9.63;3.63;;;;;;;;;;7665329;23;20041;-53
2022/07/19 10:58:20;;;;;;;7.55;3.55;;;;;;;;;;7665756;23;20107;-56
2022/07/19 11:01:23;;;;;;;7.03;3.60;;;;;;;;;;7669922;23;20083;-56
2022/07/19 11:04:28;;;;;;;8.50;3.92;;;;;;;;;;7664578;23;20123;-59
2022/07/19 11:07:29;;;;;;;9.05;3.90;;;;;;;;;;7669248;23;20408;-56
2022/07/19 11:10:30;;;;;;;9.10;4.00;;;;;;;;;;7670182;23;20075;-52
2022/07/19 11:13:31;;;;;;;7.47;3.50;;;;;;;;;;7671063;23;20281;-55
2022/07/19 11:16:31;;;;;;;7.00;3.38;;;;;;;;;;7670360;23;20023;-57
2022/07/19 11:19:32;;;;;;;8.00;3.60;;;;;;;;;;7671866;23;20049;-52
2022/07/19 11:22:42;;;;;;;5.67;3.30;;;;;;;;;;7670384;23;20251;-57
2022/07/19 11:25:42;;;;;;;6.75;3.40;;;;;;;;;;7670290;23;20041;-55
2022/07/19 11:28:44;;;;;;;8.43;3.43;;;;;;;;;;7669882;23;20120;-56
2022/07/19 11:31:47;;;;;;;7.05;3.55;;;;;;;;;;7671354;23;20401;-54
2022/07/19 11:34:59;;;;;;;9.32;3.80;;;;;;;;;;7668308;23;20548;-59
2022/07/19 11:38:00;;;;;;;8.75;3.50;;;;;;;;;;7661453;23;20156;-54
2022/07/19 11:41:01;;;;;;;6.63;3.63;;;;;;;;;;7656535;23;20690;-54
2022/07/19 11:44:01;;;;;;;6.97;3.75;;;;;;;;;;7655105;23;20887;-53
2022/07/19 11:47:02;;;;;;;8.20;4.97;;;;;;;;;;7653081;23;20029;-54
2022/07/19 11:50:07;;;;;;;8.23;3.22;;;;;;;;;;7656048;23;20041;-58
2022/07/19 11:53:08;;;;;;;6.57;3.30;;;;;;;;;;7655034;23;20353;-56
2022/07/19 11:56:21;;;;;;;7.82;3.25;;;;;;;;;;7652993;23;20036;-52
2022/07/19 11:59:21;;;;;;;8.75;3.22;;;;;;;;;;7653903;23;20021;-52
2022/07/19 12:02:22;;;;;;;5.65;3.28;;;;;;;;;;7658183;23;20115;-52
2022/07/19 12:05:24;;;;;;;8.15;3.38;;;;;;;;;;7656523;23;20032;-55
2022/07/19 12:08:33;;;;;;;6.70;3.28;;;;;;;;;;7658040;23;20025;-54
2022/07/19 12:12:13;;;;;;;8.00;3.88;;;;;;;;;;7662708;23;20048;-55
2022/07/19 12:15:15;;;;;;;7.50;3.45;;;;;;;;;;7613316;23;20108;-59
2022/07/19 12:18:17;;;;;;;5.88;3.00;;;;;;;;;;7653952;23;20025;-57
2022/07/19 12:21:42;;;;;;;6.07;3.38;;;;;;;;;;7652080;23;20107;-57
2022/07/19 12:24:45;;;;;;;7.93;3.30;;;;;;;;;;7654826;23;20555;-58
2022/07/19 12:27:59;;;;;;;6.28;3.83;;;;;;;;;;7651569;23;20108;-55
2022/07/19 12:31:06;;;;;;;7.40;3.50;;;;;;;;;;7655802;23;20021;-54
2022/07/19 12:34:07;;;;;;;7.03;3.28;;;;;;;;;;7657296;23;20172;-49
2022/07/19 12:37:25;;;;;;;9.98;3.38;;;;;;;;;;7661196;23;20025;-53
2022/07/19 12:40:27;;;;;;;7.25;3.40;;;;;;;;;;7658268;23;20028;-55
2022/07/19 12:43:27;;;;;;;6.95;3.40;;;;;;;;;;7660076;23;20488;-49
2022/07/19 12:46:28;;;;;;;7.55;3.20;;;;;;;;;;7659129;23;20025;-51
2022/07/19 12:49:46;;;;;;;6.47;3.03;;;;;;;;;;7657965;23;20013;-50
2022/07/19 12:52:46;;;;;;;6.57;3.20;;;;;;;;;;7656493;23;20449;-48
2022/07/19 12:55:49;;;;;;;8.17;3.10;;;;;;;;;;7656653;23;20024;-50
2022/07/19 13:02:13;;;;;;;8.43;3.60;;;;;;;;;;7656171;23;20937;-53
2022/07/19 13:05:15;;;;;;;7.78;3.20;;;;;;;;;;7664609;23;20017;-48
2022/07/19 13:08:15;;;;;;;;;;;;;;;;;;7652832;23;20025;-54
2022/07/19 13:11:16;;;;;;;4.80;2.90;;;;;;;;;;7655950;23;19966;-52
2022/07/19 13:14:16;;;;;;;6.43;2.90;;;;;;;;;;7651925;23;20029;-56
2022/07/19 13:17:17;;;;;;;6.93;3.20;;;;;;;;;;7653041;23;20021;-53
2022/07/19 13:20:17;;;;;;;6.97;3.43;;;;;;;;;;7654957;23;20132;-55
2022/07/19 13:23:20;;;;;;;6.57;3.10;;;;;;;;;;7659937;23;20029;-49
2022/07/19 13:26:20;;;;;;;7.80;3.20;;;;;;;;;;7657902;23;20114;-57
2022/07/19 13:29:22;;;;;;;9.82;3.65;;;;;;;;;;7656651;23;20025;-49
2022/07/19 13:32:22;;;;;;;7.07;2.90;;;;;;;;;;7655486;23;20017;-49
2022/07/19 13:35:23;;;;;;;6.28;3.17;;;;;;;;;;7652939;23;20132;-48
2022/07/19 13:38:23;;;;;;;7.23;3.10;;;;;;;;;;7653420;23;20017;-48
2022/07/19 13:41:24;;;;;;;3.88;2.50;;;;;;;;;;7660520;23;20023;-48
2022/07/19 13:44:25;;;;;;;6.63;2.92;;;;;;;;;;7658670;23;20098;-59
2022/07/19 13:47:26;;;;;;;;;;;;;;;;;;7653973;23;20124;-48
2022/07/19 13:50:27;;;;;;;8.83;3.20;;;;;;;;;;7656411;23;20228;-56
2022/07/19 13:53:28;;;;;;;6.22;3.00;;;;;;;;;;7654343;23;20044;-57
2022/07/19 13:56:29;;;;;;;5.80;2.93;;;;;;;;;;7654385;23;20355;-55
2022/07/19 13:59:31;;;;;;;8.30;3.10;;;;;;;;;;7656070;23;20308;-56
2022/07/19 14:02:31;;;;;;;7.65;3.05;;;;;;;;;;7657635;23;20319;-50
2022/07/19 14:05:32;;;;;;;6.43;3.20;;;;;;;;;;7655418;23;20039;-48
2022/07/19 14:08:33;;;;;;;8.10;3.20;;;;;;;;;;7655900;23;20027;-47
2022/07/19 14:11:35;;;;;;;6.38;3.30;;;;;;;;;;7658088;23;20445;-58
2022/07/19 14:14:35;;;;;;;8.68;3.22;;;;;;;;;;7655158;23;20100;-54
2022/07/19 14:17:36;;;;;;;6.20;3.30;;;;;;;;;;7654960;23;20728;-57
2022/07/19 14:20:40;;;;;;;5.55;3.03;;;;;;;;;;7656753;23;20092;-55
2022/07/19 14:23:41;;;;;;;5.95;2.90;;;;;;;;;;7658157;23;20031;-50
2022/07/19 14:26:41;;;;;;;8.73;3.40;;;;;;;;;;7656580;23;20021;-49
2022/07/19 14:29:42;;;;;;;6.35;3.28;;;;;;;;;;7656603;23;20056;-50
2022/07/19 14:32:43;;;;;;;7.13;2.97;;;;;;;;;;7659908;23;20610;-58
2022/07/19 14:35:44;;;;;;;;;;;;;;;;;;7661122;23;20017;-59
2022/07/19 14:38:44;;;;;;;5.47;3.33;;;;;;;;;;7659711;23;19942;-55
2022/07/19 14:41:45;;;;;;;6.25;3.35;;;;;;;;;;7662264;23;20024;-56
2022/07/19 14:44:46;;;;;;;;;;;;;;;;;;7661328;23;20487;-58
2022/07/19 14:47:46;;;;;;;7.90;4.47;;;;;;;;;;7659412;23;19927;-55
2022/07/19 14:50:47;;;;;;;5.30;2.97;;;;;;;;;;7663192;23;20097;-57
2022/07/19 14:53:47;;;;;;;7.68;3.42;;;;;;;;;;7658902;23;20100;-54
2022/07/19 14:56:48;;;;;;;7.18;3.50;;;;;;;;;;7659753;23;20021;-56
2022/07/19 14:59:49;;;;;;;6.05;3.40;;;;;;;;;;7659078;23;20021;-56
2022/07/19 15:02:50;;;;;;;5.63;2.95;;;;;;;;;;7660584;23;20484;-50
2022/07/19 15:05:51;;;;;;;;;;;;;;;;;;7660084;23;20021;-55
2022/07/19 15:08:51;;;;;;;6.40;3.00;;;;;;;;;;7658281;23;19926;-52
2022/07/19 15:11:52;;;;;;;;;;;;;;;;;;7661255;23;20025;-58
2022/07/19 15:14:52;;;;;;;7.13;3.43;;;;;;;;;;7662347;23;20541;-58
2022/07/19 15:17:53;;;;;;;;;;;;;;;;;;7661161;23;20401;-56
2022/07/19 15:20:53;;;;;;;8.73;3.27;;;;;;;;;;7662145;23;20411;-55
2022/07/19 15:23:56;;;;;;;7.18;3.42;;;;;;;;;;7660516;23;20075;-58
2022/07/19 15:26:56;;;;;;;;;;;;;;;;;;7661317;23;20024;-50
2022/07/19 15:29:57;;;;;;;6.57;3.22;;;;;;;;;;7661451;23;19916;-58
2022/07/19 15:32:57;;;;;;;;;;;;;;;;;;7661150;23;20013;-55
2022/07/19 15:35:59;;;;;;;7.17;3.60;;;;;;;;;;7662386;23;20613;-56
2022/07/19 15:38:59;;;;;;;6.30;3.30;;;;;;;;;;7658801;23;20020;-56
2022/07/19 15:42:00;;;;;;;;;;;;;;;;;;7661993;23;20032;-57
2022/07/19 15:45:00;;;;;;;7.03;3.50;;;;;;;;;;7661774;23;20322;-55
2022/07/19 15:48:01;;;;;;;;;;;;;;;;;;7659967;23;20029;-57
2022/07/19 15:51:01;;;;;;;5.77;3.23;;;;;;;;;;7663992;23;19974;-57
2022/07/19 15:54:05;;;;;;;;;;;;;;;;;;7662819;23;20459;-57
2022/07/19 15:57:06;;;;;;;8.25;3.40;;;;;;;;;;7660669;23;19920;-55
2022/07/19 16:00:07;;;;;;;;;;;;;;;;;;7661006;23;20464;-55
2022/07/19 16:03:08;;;;;;;;;;;;;;;;;;7661609;23;19920;-59
2022/07/19 16:06:08;;;;;;;8.83;4.70;;;;;;;;;;7662322;23;19920;-56
2022/07/19 16:09:09;;;;;;;;;;;;;;;;;;7660053;23;20255;-58
2022/07/19 16:12:10;;;;;;;7.30;3.50;;;;;;;;;;7663817;23;19924;-58
2022/07/19 16:15:10;;;;;;;;;;;;;;;;;;7674449;23;20031;-56
2022/07/19 16:18:11;;;;;;;6.70;3.03;;;;;;;;;;7658792;23;19920;-58
2022/07/19 16:21:11;;;;;;;;;;;;;;;;;;7662207;23;20092;-58
2022/07/19 16:24:12;;;;;;;6.97;3.10;;;;;;;;;;7660899;23;19927;-56
2022/07/19 16:27:12;;;;;;;;;;;;;;;;;;7661680;23;20532;-54
2022/07/19 16:30:14;;;;;;;8.53;3.67;;;;;;;;;;7660448;23;19927;-58
2022/07/19 16:33:14;;;;;;;9.13;3.50;;;;;;;;;;7661656;23;20473;-58
2022/07/19 16:36:15;;;;;;;;;;;;;;;;;;7662018;23;20128;-59
2022/07/19 16:39:15;;;;;;;7.13;3.50;;;;;;;;;;7661092;23;19970;-58
2022/07/19 16:42:16;;;;;;;7.78;3.30;;;;;;;;;;7663129;23;20076;-58
2022/07/19 16:45:16;;;;;;;;;;;;;;;;;;7661606;23;20057;-55
2022/07/19 16:48:17;;;;;;;8.87;3.67;;;;;;;;;;7658941;23;19920;-52
2022/07/19 16:51:18;;;;;;;;;;;;;;;;;;7661921;23;20028;-57
2022/07/19 16:54:18;;;;;;;7.57;3.63;;;;;;;;;;7660495;23;19994;-56
2022/07/19 16:57:19;;;;;;;;;;;;;;;;;;7658786;23;20499;-57
2022/07/19 17:00:19;;;;;;;7.57;3.57;;;;;;;;;;7659646;23;19924;-58
2022/07/19 17:03:20;;;;;;;;;;;;;;;;;;7659055;23;20025;-58
2022/07/19 17:06:20;;;;;;;8.13;4.13;;;;;;;;;;7658388;23;20366;-54
2022/07/19 17:09:21;;;;;;;;;;;;;;;;;;7658366;23;20021;-56
2022/07/19 17:12:22;;;;;;;7.22;3.90;;;;;;;;;;7659870;23;20027;-58
2022/07/19 17:15:22;;;;;;;;;;;;;;;;;;7659644;23;20017;-58
2022/07/19 17:18:23;;;;;;;12.00;3.73;;;;;;;;;;7657828;23;19927;-53
2022/07/19 17:21:23;;;;;;;;;;;;;;;;;;7663023;23;20512;-57
2022/07/19 17:24:24;;;;;;;8.20;3.47;;;;;;;;;;7660384;23;19920;-57
2022/07/19 17:27:26;;;;;;;7.28;3.60;;;;;;;;;;7659880;23;20031;-58
2022/07/19 17:30:27;;;;;;;7.82;3.85;;;;;;;;;;7662276;23;20018;-57
2022/07/19 17:33:27;;;;;;;10.55;4.30;;;;;;;;;;7658902;23;20017;-58
2022/07/19 17:36:28;;;;;;;;;;;;;;;;;;7660627;23;20095;-55
2022/07/19 17:39:28;;;;;;;11.33;3.83;;;;;;;;;;7658052;23;20419;-55
2022/07/19 17:42:30;;;;;;;;;;;;;;;;;;7660669;23;20045;-57
2022/07/19 17:45:35;;;;;;;8.07;3.20;;;;;;;;;;7657013;23;19920;-51
2022/07/19 17:48:37;;;;;;;6.57;3.47;;;;;;;;;;7647537;23;20036;-57
2022/07/19 17:51:39;;;;;;;7.35;3.80;;;;;;;;;;7653892;23;20107;-67
2022/07/19 17:54:40;;;;;;;;;;;;;;;;;;7659668;23;20167;-69
2022/07/19 17:57:41;;;;;;;8.93;3.43;;;;;;;;;;7658238;23;19920;-75
2022/07/19 18:00:42;;;;;;;7.78;4.00;;;;;;;;;;7659402;23;20017;-64
2022/07/19 18:03:43;;;;;;;5.45;3.72;;;;;;;;;;7658904;23;20072;-73
2022/07/19 18:06:44;;;;;;;;;;;;;;;;;;7635096;23;20409;-62
2022/07/19 18:09:46;;;;;;;6.07;3.63;;;;;;;;;;7662271;23;19927;-69
2022/07/19 18:12:46;;;;;;;;;;;;;;;;;;7663621;23;20516;-68
2022/07/19 18:15:47;;;;;;;6.40;3.50;;;;;;;;;;7657506;23;19920;-72
2022/07/19 18:18:50;;;;;;;8.90;4.00;;;;;;;;;;7660396;23;20055;-70